createdAt,value
2022-11-05T00:00:18.691Z,14.60
2022-11-05T00:03:04.010Z,13.27
2022-11-05T00:05:49.945Z,14.10
2022-11-05T00:08:34.819Z,14.43
2022-11-05T00:11:01.244Z,13.73
2022-11-05T00:13:46.747Z,14.60
2022-11-05T00:16:31.404Z,15.88
2022-11-05T00:19:06.803Z,14.45
2022-11-05T00:21:53.286Z,15.57
2022-11-05T00:24:38.580Z,15.35
2022-11-05T00:27:04.964Z,16.40
2022-11-05T00:29:31.378Z,15.68
2022-11-05T00:31:57.736Z,14.23
2022-11-05T00:34:24.086Z,15.02
2022-11-05T00:36:50.442Z,14.38
2022-11-05T00:39:16.792Z,14.00
2022-11-05T00:41:43.372Z,13.75
2022-11-05T00:44:28.058Z,11.18
2022-11-05T00:47:14.382Z,11.75
2022-11-05T00:54:51.769Z,8.80
2022-11-05T00:57:18.104Z,9.70
2022-11-05T00:59:44.465Z,9.63
2022-11-05T01:02:10.852Z,11.18
2022-11-05T01:04:37.263Z,10.55
2022-11-05T01:07:03.592Z,10.52
2022-11-05T01:09:29.919Z,10.15
2022-11-05T01:11:56.240Z,11.10
2022-11-05T01:14:22.581Z,11.15
2022-11-05T01:16:48.912Z,11.43
2022-11-05T01:19:15.308Z,12.20
2022-11-05T01:21:41.674Z,9.85
2022-11-05T01:24:08.181Z,10.30
2022-11-05T01:26:34.527Z,10.95
2022-11-05T01:29:00.918Z,11.32
2022-11-05T01:31:28.542Z,11.90
2022-11-05T01:33:55.079Z,12.07
2022-11-05T01:36:21.430Z,12.75
2022-11-05T01:38:47.762Z,12.57
2022-11-05T01:41:14.150Z,12.43
2022-11-05T01:43:57.303Z,12.00
2022-11-05T01:46:25.666Z,11.02
2022-11-05T01:48:57.301Z,10.15
2022-11-05T01:51:28.157Z,9.98
2022-11-05T01:54:00.025Z,9.60
2022-11-05T01:56:35.374Z,10.45
2022-11-05T01:59:25.016Z,10.13
2022-11-05T02:01:51.957Z,8.38
2022-11-05T02:04:27.941Z,8.98
2022-11-05T02:06:54.486Z,8.52
2022-11-05T02:09:27.565Z,9.70
2022-11-05T02:11:54.089Z,11.20
2022-11-05T02:14:20.531Z,11.15
2022-11-05T02:17:00.995Z,11.35
2022-11-05T02:19:48.891Z,9.98
2022-11-05T02:22:31.920Z,9.98
2022-11-05T02:25:26.315Z,9.27
2022-11-05T02:28:16.694Z,9.27
2022-11-05T02:30:52.819Z,9.45
2022-11-05T02:33:41.620Z,9.77
2022-11-05T02:36:32.301Z,9.40
2022-11-05T02:39:10.812Z,10.43
2022-11-05T02:41:40.112Z,9.23
2022-11-05T02:44:20.376Z,8.80
2022-11-05T02:46:52.723Z,9.90
2022-11-05T02:49:29.848Z,9.75
2022-11-05T02:52:06.230Z,8.70
2022-11-05T02:54:38.500Z,9.77
2022-11-05T02:57:06.022Z,8.60
2022-11-05T02:59:32.504Z,9.07
2022-11-05T03:02:01.733Z,9.38
2022-11-05T03:04:29.825Z,8.57
2022-11-05T03:07:23.797Z,9.20
2022-11-05T03:10:05.407Z,8.60
2022-11-05T03:12:42.765Z,7.85
2022-11-05T03:15:19.976Z,8.65
2022-11-05T03:17:56.801Z,7.72
2022-11-05T03:20:34.204Z,9.02
2022-11-05T03:23:14.726Z,8.07
2022-11-05T03:25:49.765Z,8.18
2022-11-05T03:28:19.702Z,8.50
2022-11-05T03:30:50.289Z,7.43
2022-11-05T03:33:24.412Z,7.72
2022-11-05T03:35:55.488Z,7.97
2022-11-05T03:38:29.141Z,8.40
2022-11-05T03:40:59.667Z,7.78
2022-11-05T03:43:32.821Z,7.88
2022-11-05T03:46:04.000Z,7.30
2022-11-05T03:48:31.418Z,6.57
2022-11-05T03:51:06.818Z,6.50
2022-11-05T03:53:41.085Z,6.70
2022-11-05T03:56:18.233Z,6.18
2022-11-05T03:58:46.208Z,6.18
2022-11-05T04:01:12.821Z,5.47
2022-11-05T04:03:39.229Z,5.45
2022-11-05T04:06:26.295Z,5.10
2022-11-05T04:09:11.150Z,5.05
2022-11-05T04:11:56.528Z,4.63
2022-11-05T04:14:23.012Z,5.17
2022-11-05T04:17:08.585Z,4.30
2022-11-05T04:20:03.292Z,5.22
2022-11-05T04:22:53.245Z,4.93
2022-11-05T04:25:21.674Z,5.55
2022-11-05T04:27:49.020Z,5.07
2022-11-05T04:30:20.273Z,4.75
2022-11-05T04:32:56.552Z,5.43
2022-11-05T04:35:23.196Z,5.88
2022-11-05T04:37:49.837Z,4.70
2022-11-05T04:40:16.183Z,4.78
2022-11-05T04:42:42.506Z,5.10
2022-11-05T04:45:09.023Z,5.50
2022-11-05T04:47:35.358Z,5.25
2022-11-05T04:50:01.800Z,5.72
2022-11-05T04:52:28.205Z,6.18
2022-11-05T04:54:54.534Z,5.60
2022-11-05T04:57:20.861Z,6.00
2022-11-05T04:59:50.378Z,5.65
2022-11-05T05:02:16.814Z,5.93
2022-11-05T05:04:43.252Z,6.05
2022-11-05T05:07:09.591Z,5.80
2022-11-05T05:09:35.954Z,5.53
2022-11-05T05:12:02.673Z,6.05
2022-11-05T05:14:29.005Z,6.30
2022-11-05T05:16:55.337Z,5.70
2022-11-05T05:19:21.728Z,6.35
2022-11-05T05:21:48.088Z,6.30
2022-11-05T05:24:17.322Z,6.32
2022-11-05T05:26:46.396Z,6.30
2022-11-05T05:29:13.086Z,6.47
2022-11-05T05:31:40.294Z,6.90
2022-11-05T05:34:09.946Z,6.85
2022-11-05T05:36:36.269Z,6.40
2022-11-05T05:39:06.344Z,6.32
2022-11-05T05:41:33.009Z,5.95
2022-11-05T05:43:59.393Z,6.50
2022-11-05T05:46:25.716Z,7.18
2022-11-05T05:48:52.445Z,6.57
2022-11-05T05:51:19.650Z,6.50
2022-11-05T05:53:46.069Z,7.00
2022-11-05T05:56:15.034Z,7.40
2022-11-05T05:58:42.015Z,7.35
2022-11-05T06:01:17.226Z,7.60
2022-11-05T06:03:45.195Z,7.78
2022-11-05T06:06:15.661Z,7.60
2022-11-05T06:08:42.632Z,6.95
2022-11-05T06:11:09.522Z,7.40
2022-11-05T06:13:36.439Z,7.78
2022-11-05T06:16:08.407Z,7.57
2022-11-05T06:18:35.942Z,7.93
2022-11-05T06:21:03.879Z,7.30
2022-11-05T06:23:32.058Z,8.13
2022-11-05T06:26:03.283Z,7.75
2022-11-05T06:28:30.074Z,8.25
2022-11-05T06:30:57.698Z,7.72
2022-11-05T06:33:24.387Z,8.32
2022-11-05T06:35:50.732Z,8.70
2022-11-05T06:38:17.126Z,8.57
2022-11-05T06:40:43.567Z,9.05
2022-11-05T06:43:10.394Z,7.85
2022-11-05T06:45:36.961Z,8.32
2022-11-05T06:48:03.466Z,8.48
2022-11-05T06:50:29.908Z,8.63
2022-11-05T06:52:56.806Z,8.98
2022-11-05T06:55:24.429Z,9.02
2022-11-05T06:57:51.205Z,8.45
2022-11-05T07:00:18.170Z,9.18
2022-11-05T07:02:45.263Z,8.38
2022-11-05T07:05:12.586Z,9.05
2022-11-05T07:07:39.951Z,9.15
2022-11-05T07:10:08.636Z,9.32
2022-11-05T07:12:34.997Z,9.07
2022-11-05T07:15:01.606Z,8.93
2022-11-05T07:17:27.925Z,9.30
2022-11-05T07:19:54.264Z,9.45
2022-11-05T07:22:20.621Z,8.65
2022-11-05T07:24:47.945Z,10.07
2022-11-05T07:27:14.296Z,8.73
2022-11-05T07:29:40.646Z,9.98
2022-11-05T07:32:07.102Z,9.23
2022-11-05T07:34:33.456Z,8.75
2022-11-05T07:36:59.850Z,9.15
2022-11-05T07:39:26.188Z,8.93
2022-11-05T07:41:54.784Z,8.95
2022-11-05T07:44:21.787Z,9.15
2022-11-05T07:46:48.100Z,9.07
2022-11-05T07:49:14.462Z,8.88
2022-11-05T07:51:40.884Z,9.27
2022-11-05T07:54:07.334Z,8.80
2022-11-05T07:56:33.740Z,8.75
2022-11-05T07:59:00.411Z,9.05
2022-11-05T08:01:27.190Z,9.65
2022-11-05T08:03:53.796Z,9.95
2022-11-05T08:06:20.136Z,8.75
2022-11-05T08:08:47.605Z,9.18
2022-11-05T08:11:13.971Z,9.55
2022-11-05T08:13:40.378Z,9.77
2022-11-05T08:16:07.704Z,9.98
2022-11-05T08:18:34.125Z,10.27
2022-11-05T08:21:02.741Z,9.40
2022-11-05T08:23:30.635Z,9.98
2022-11-05T08:25:57.895Z,9.50
2022-11-05T08:28:26.217Z,9.95
2022-11-05T08:30:54.411Z,10.23
2022-11-05T08:33:21.902Z,9.52
2022-11-05T08:35:48.452Z,10.18
2022-11-05T08:38:18.234Z,9.70
2022-11-05T08:40:46.596Z,10.43
2022-11-05T08:43:14.474Z,10.93
2022-11-05T08:45:41.334Z,10.68
2022-11-05T08:48:10.395Z,10.60
2022-11-05T08:50:37.783Z,10.50
2022-11-05T08:53:05.498Z,10.73
2022-11-05T08:55:32.304Z,11.68
2022-11-05T08:58:00.881Z,11.20
2022-11-05T09:00:29.235Z,10.98
2022-11-05T09:02:58.906Z,11.50
2022-11-05T09:05:25.259Z,11.23
2022-11-05T09:07:53.172Z,11.55
2022-11-05T09:10:23.491Z,10.50
2022-11-05T09:12:49.932Z,10.80
2022-11-05T09:15:16.403Z,10.85
2022-11-05T09:17:42.738Z,11.23
2022-11-05T09:20:14.762Z,10.30
2022-11-05T09:22:43.401Z,12.05
2022-11-05T09:25:10.247Z,12.05
2022-11-05T09:27:36.579Z,11.10
2022-11-05T09:30:03.620Z,10.82
2022-11-05T09:32:33.646Z,11.55
2022-11-05T09:35:01.092Z,12.05
2022-11-05T09:37:28.379Z,11.48
2022-11-05T09:39:54.981Z,11.35
2022-11-05T09:42:25.228Z,11.15
2022-11-05T09:45:05.254Z,12.68
2022-11-05T09:47:45.812Z,11.35
2022-11-05T09:50:16.553Z,11.55
2022-11-05T09:52:43.181Z,11.07
2022-11-05T09:55:20.773Z,11.02
2022-11-05T09:57:53.275Z,11.32
2022-11-05T10:00:20.044Z,12.10
2022-11-05T10:02:57.342Z,12.25
2022-11-05T10:05:25.947Z,12.38
2022-11-05T10:08:24.399Z,12.48
2022-11-05T10:10:56.353Z,11.57
2022-11-05T10:13:35.933Z,11.90
2022-11-05T10:16:24.481Z,11.98
2022-11-05T10:19:37.460Z,11.55
2022-11-05T10:22:16.394Z,9.68
2022-11-05T10:24:47.025Z,10.32
2022-11-05T10:27:27.856Z,9.95
2022-11-05T10:29:54.350Z,10.45
2022-11-05T10:32:30.083Z,9.18
2022-11-05T10:34:59.992Z,8.70
2022-11-05T10:37:27.646Z,8.82
2022-11-05T10:39:55.080Z,8.93
2022-11-05T10:42:30.447Z,8.50
2022-11-05T10:45:05.726Z,10.20
2022-11-05T10:48:16.926Z,9.45
2022-11-05T10:50:44.021Z,8.77
2022-11-05T10:53:16.740Z,9.35
2022-11-05T10:55:50.936Z,9.30
2022-11-05T10:58:17.205Z,8.50
2022-11-05T11:01:00.007Z,8.45
2022-11-05T11:03:34.637Z,8.68
2022-11-05T11:06:04.572Z,8.07
2022-11-05T11:08:35.371Z,9.18
2022-11-05T11:11:12.018Z,8.43
2022-11-05T11:13:56.719Z,7.75
2022-11-05T11:16:27.015Z,7.38
2022-11-05T11:19:00.716Z,6.88
2022-11-05T11:21:28.681Z,7.88
2022-11-05T11:24:06.916Z,6.82
2022-11-05T11:26:37.854Z,6.65
2022-11-05T11:29:22.835Z,6.95
2022-11-05T11:31:49.251Z,6.90
2022-11-05T11:34:24.693Z,6.93
2022-11-05T11:36:55.328Z,6.93
2022-11-05T11:39:25.489Z,6.35
2022-11-05T11:41:55.685Z,6.63
2022-11-05T11:44:39.530Z,6.60
2022-11-05T11:47:12.069Z,6.07
2022-11-05T11:49:41.527Z,6.38
2022-11-05T11:52:15.764Z,6.28
2022-11-05T11:54:42.298Z,5.65
2022-11-05T11:57:25.707Z,5.68
2022-11-05T12:00:08.236Z,5.45
2022-11-05T12:03:14.672Z,5.13
2022-11-05T12:05:48.089Z,5.20
2022-11-05T12:08:42.887Z,5.00
2022-11-05T12:11:29.806Z,5.50
2022-11-05T12:14:12.872Z,5.30
2022-11-05T12:16:52.578Z,4.82
2022-11-05T12:19:46.957Z,4.40
2022-11-05T12:22:36.520Z,5.07
2022-11-05T12:25:24.558Z,5.05
2022-11-05T12:28:29.030Z,4.50
2022-11-05T12:31:22.931Z,4.50
2022-11-05T12:34:04.491Z,4.43
2022-11-05T12:36:30.780Z,4.53
2022-11-05T12:39:00.015Z,4.38
2022-11-05T12:41:43.518Z,4.15
2022-11-05T12:44:54.442Z,4.28
2022-11-05T12:47:49.232Z,4.03
2022-11-05T12:50:26.426Z,3.78
2022-11-05T12:53:22.308Z,4.28
2022-11-05T12:55:50.208Z,4.00
2022-11-05T12:58:26.801Z,3.75
2022-11-05T13:01:00.293Z,3.72
2022-11-05T13:03:42.392Z,3.47
2022-11-05T13:06:24.168Z,3.42
2022-11-05T13:09:02.206Z,4.13
2022-11-05T13:11:44.451Z,3.33
2022-11-05T13:14:18.214Z,3.78
2022-11-05T13:16:50.888Z,3.80
2022-11-05T13:19:23.915Z,3.80
2022-11-05T13:21:56.600Z,3.50
2022-11-05T13:24:37.864Z,3.63
2022-11-05T13:27:52.698Z,3.53
2022-11-05T13:30:26.106Z,3.65
2022-11-05T13:33:01.931Z,3.63
2022-11-05T13:35:45.078Z,3.60
2022-11-05T13:38:40.788Z,3.47
2022-11-05T13:41:36.150Z,3.60
2022-11-05T13:44:12.098Z,3.20
2022-11-05T13:50:06.729Z,3.30
2022-11-05T13:53:14.659Z,3.72
2022-11-05T13:55:52.474Z,3.63
2022-11-05T13:58:48.050Z,3.33
2022-11-05T14:01:21.795Z,3.05
2022-11-05T14:03:51.207Z,3.30
2022-11-05T14:06:37.850Z,3.10
2022-11-05T14:09:20.102Z,3.03
2022-11-05T14:11:53.784Z,3.03
2022-11-05T14:14:25.852Z,3.30
2022-11-05T14:17:12.961Z,3.28
2022-11-05T14:20:07.046Z,3.20
2022-11-05T14:22:33.377Z,2.53
2022-11-05T14:25:18.363Z,2.80
2022-11-05T14:27:49.227Z,3.50
2022-11-05T14:30:45.316Z,2.78
2022-11-05T14:33:25.711Z,2.70
2022-11-05T14:35:53.854Z,2.40
2022-11-05T14:38:23.430Z,2.97
2022-11-05T14:40:59.101Z,2.85
2022-11-05T14:43:27.842Z,2.60
2022-11-05T14:46:00.731Z,2.63
2022-11-05T14:48:42.084Z,2.42
2022-11-05T14:51:24.937Z,2.72
2022-11-05T14:54:03.058Z,2.15
2022-11-05T14:56:42.356Z,2.35
2022-11-05T14:59:24.105Z,2.38
2022-11-05T15:01:50.514Z,2.13
2022-11-05T15:04:33.326Z,1.90
2022-11-05T15:07:02.497Z,2.08
2022-11-05T15:09:50.957Z,2.42
2022-11-05T15:12:19.787Z,1.88
2022-11-05T15:14:58.325Z,2.25
2022-11-05T15:17:40.816Z,2.30
2022-11-05T15:20:17.701Z,2.78
2022-11-05T15:22:48.970Z,2.42
2022-11-05T15:25:46.701Z,2.00
2022-11-05T15:28:36.965Z,2.38
2022-11-05T15:31:12.533Z,2.22
2022-11-05T15:33:47.640Z,2.50
2022-11-05T15:36:23.979Z,5.03
2022-11-05T15:39:08.484Z,3.28
2022-11-05T15:41:38.065Z,2.95
2022-11-05T15:44:04.540Z,2.75
2022-11-05T15:46:31.239Z,3.40
2022-11-05T15:49:03.728Z,2.83
2022-11-05T15:51:30.280Z,3.03
2022-11-05T15:56:55.754Z,3.55
2022-11-05T15:59:24.370Z,5.28
2022-11-05T16:02:05.074Z,4.22
2022-11-05T16:04:34.433Z,6.50
2022-11-05T16:07:08.955Z,4.75
2022-11-05T16:09:39.903Z,5.38
2022-11-05T16:12:27.296Z,10.52
2022-11-05T16:15:04.305Z,4.70
2022-11-05T16:17:44.559Z,3.90
2022-11-05T16:20:32.124Z,3.13
2022-11-05T16:23:01.087Z,3.35
2022-11-05T16:25:37.576Z,3.17
2022-11-05T16:28:06.711Z,3.67
2022-11-05T16:30:33.150Z,3.88
2022-11-05T16:33:04.776Z,5.07
2022-11-05T16:35:31.385Z,10.35
2022-11-05T16:38:01.161Z,19.23
2022-11-05T16:40:27.534Z,17.95
2022-11-05T16:42:54.523Z,12.68
2022-11-05T16:45:24.074Z,9.20
2022-11-05T16:47:50.941Z,7.55
2022-11-05T16:50:24.536Z,6.00
2022-11-05T16:52:51.216Z,5.90
2022-11-05T16:55:19.022Z,4.72
2022-11-05T16:57:49.182Z,4.15
2022-11-05T17:00:17.891Z,4.25
2022-11-05T17:02:45.140Z,4.68
2022-11-05T17:05:26.828Z,4.10
2022-11-05T17:07:54.111Z,4.15
2022-11-05T17:10:21.793Z,4.03
2022-11-05T17:12:48.585Z,4.63
2022-11-05T17:15:22.692Z,5.38
2022-11-05T17:17:49.776Z,5.13
2022-11-05T17:20:39.864Z,5.68
2022-11-05T17:23:12.431Z,4.70
2022-11-05T17:25:45.819Z,5.18
2022-11-05T17:28:13.387Z,5.30
2022-11-05T17:30:41.648Z,5.35
2022-11-05T17:33:09.319Z,5.40
2022-11-05T17:35:38.281Z,5.03
2022-11-05T17:38:04.838Z,5.18
2022-11-05T17:40:33.481Z,4.47
2022-11-05T17:42:59.817Z,4.18
2022-11-05T17:45:26.132Z,4.65
2022-11-05T17:47:52.650Z,4.35
2022-11-05T17:50:19.375Z,4.43
2022-11-05T17:52:46.045Z,5.45
2022-11-05T17:55:17.197Z,4.40
2022-11-05T17:57:46.073Z,4.90
2022-11-05T18:00:14.617Z,5.50
2022-11-05T18:02:41.096Z,5.55
2022-11-05T18:05:08.014Z,4.88
2022-11-05T18:07:34.396Z,5.32
2022-11-05T18:10:00.764Z,4.28
2022-11-05T18:12:27.141Z,5.43
2022-11-05T18:14:53.469Z,4.53
2022-11-05T18:17:19.820Z,5.22
2022-11-05T18:19:46.183Z,4.82
2022-11-05T18:22:12.529Z,5.18
2022-11-05T18:24:38.866Z,4.95
2022-11-05T18:27:05.222Z,4.95
2022-11-05T18:29:31.601Z,5.55
2022-11-05T18:31:58.023Z,5.40
2022-11-05T18:34:24.450Z,5.68
2022-11-05T18:36:56.008Z,5.68
2022-11-05T18:39:23.163Z,5.90
2022-11-05T18:41:49.544Z,5.78
2022-11-05T18:44:16.668Z,5.63
2022-11-05T18:46:57.601Z,5.80
2022-11-05T18:49:25.407Z,5.68
2022-11-05T18:51:51.744Z,6.05
2022-11-05T18:54:18.108Z,5.43
2022-11-05T18:56:47.291Z,5.65
2022-11-05T18:59:44.661Z,6.30
2022-11-05T19:02:03.613Z,5.93
2022-11-05T19:04:30.552Z,6.18
2022-11-05T19:07:00.199Z,5.85
2022-11-05T19:09:30.720Z,6.47
2022-11-05T19:11:57.109Z,5.15
2022-11-05T19:14:23.779Z,5.75
2022-11-05T19:16:50.137Z,5.78
2022-11-05T19:19:16.537Z,5.97
2022-11-05T19:21:42.880Z,5.80
2022-11-05T19:24:10.243Z,5.78
2022-11-05T19:26:36.630Z,5.53
2022-11-05T19:29:03.659Z,5.15
2022-11-05T19:31:31.387Z,5.60
2022-11-05T19:33:58.192Z,5.30
2022-11-05T19:36:25.281Z,5.63
2022-11-05T19:38:59.908Z,4.60
2022-11-05T19:41:26.826Z,5.03
2022-11-05T19:43:54.829Z,4.50
2022-11-05T19:46:22.929Z,4.65
2022-11-05T19:48:49.780Z,4.78
2022-11-05T19:51:22.261Z,4.25
2022-11-05T19:53:51.245Z,4.10
2022-11-05T19:56:20.383Z,3.97
2022-11-05T19:58:47.006Z,4.07
2022-11-05T20:01:15.549Z,4.22
2022-11-05T20:03:42.119Z,4.07
2022-11-05T20:06:11.688Z,4.65
2022-11-05T20:08:53.425Z,3.78
2022-11-05T20:11:25.580Z,3.92
2022-11-05T20:13:52.134Z,4.40
2022-11-05T20:16:24.584Z,3.88
2022-11-05T20:18:51.324Z,4.07
2022-11-05T20:21:18.694Z,4.20
2022-11-05T20:23:45.034Z,4.13
2022-11-05T20:26:12.511Z,4.13
2022-11-05T20:28:40.358Z,4.13
2022-11-05T20:31:17.679Z,4.20
2022-11-05T20:33:45.265Z,3.88
2022-11-05T20:36:16.990Z,4.55
2022-11-05T20:38:47.156Z,4.20
2022-11-05T20:41:13.635Z,3.90
2022-11-05T20:43:41.018Z,4.13
2022-11-05T20:46:09.301Z,3.75
2022-11-05T20:48:35.981Z,3.67
2022-11-05T20:51:07.818Z,3.75
2022-11-05T20:53:35.381Z,4.10
2022-11-05T20:56:07.453Z,5.05
2022-11-05T20:58:35.360Z,5.10
2022-11-05T21:01:02.084Z,5.25
2022-11-05T21:03:28.550Z,9.15
2022-11-05T21:05:59.744Z,6.57
2022-11-05T21:08:27.274Z,5.57
2022-11-05T21:10:54.668Z,4.88
2022-11-05T21:13:21.904Z,6.43
2022-11-05T21:15:51.380Z,4.43
2022-11-05T21:18:19.335Z,5.97
2022-11-05T21:20:46.793Z,4.50
2022-11-05T21:23:13.926Z,3.63
2022-11-05T21:25:43.855Z,3.30
2022-11-05T21:28:11.981Z,3.50
2022-11-05T21:30:41.824Z,3.25
2022-11-05T21:33:08.809Z,3.88
2022-11-05T21:35:39.257Z,3.83
2022-11-05T21:38:05.604Z,3.58
2022-11-05T21:40:32.665Z,3.70
2022-11-05T21:42:59.010Z,3.80
2022-11-05T21:45:25.949Z,3.28
2022-11-05T21:47:52.401Z,3.65
2022-11-05T21:50:21.939Z,3.60
2022-11-05T21:53:07.234Z,3.78
2022-11-05T21:55:52.189Z,3.78
2022-11-05T21:58:37.485Z,4.38
2022-11-05T22:01:03.947Z,3.75
2022-11-05T22:03:30.291Z,3.88
2022-11-05T22:05:57.049Z,4.40
2022-11-05T22:08:23.409Z,4.40
2022-11-05T22:10:49.749Z,3.90
2022-11-05T22:13:16.716Z,4.07
2022-11-05T22:15:43.041Z,7.50
2022-11-05T22:18:09.604Z,5.50
2022-11-05T22:20:39.174Z,4.68
2022-11-05T22:23:10.837Z,4.22
2022-11-05T22:25:37.946Z,4.63
2022-11-05T22:28:04.494Z,5.35
2022-11-05T22:30:34.483Z,4.90
2022-11-05T22:33:01.365Z,4.07
2022-11-05T22:35:28.089Z,3.85
2022-11-05T22:37:54.501Z,4.15
2022-11-05T22:40:23.804Z,4.90
2022-11-05T22:42:50.535Z,4.30
2022-11-05T22:45:16.904Z,4.43
2022-11-05T22:47:43.232Z,3.90
2022-11-05T22:50:09.808Z,4.22
2022-11-05T22:52:36.146Z,5.00
2022-11-05T22:55:04.860Z,4.65
2022-11-05T22:57:31.199Z,4.18
2022-11-05T22:59:57.506Z,4.18
2022-11-05T23:02:24.166Z,4.25
2022-11-05T23:04:53.843Z,4.07
2022-11-05T23:07:39.031Z,4.45
2022-11-05T23:10:24.162Z,4.82
2022-11-05T23:12:50.641Z,4.40
2022-11-05T23:15:35.370Z,4.53
2022-11-05T23:18:20.652Z,4.40
2022-11-05T23:21:05.322Z,5.32
2022-11-05T23:23:50.216Z,4.50
2022-11-05T23:26:35.477Z,5.07
2022-11-05T23:29:01.888Z,4.78
2022-11-05T23:31:47.109Z,4.95
2022-11-05T23:34:13.451Z,4.70
2022-11-05T23:36:58.441Z,4.78
2022-11-05T23:39:24.785Z,4.55
2022-11-05T23:42:10.162Z,4.47
2022-11-05T23:44:55.095Z,4.47
2022-11-05T23:47:39.692Z,4.57
2022-11-05T23:50:06.164Z,4.53
2022-11-05T23:52:32.688Z,4.35
2022-11-05T23:54:59.050Z,4.15
2022-11-05T23:57:25.380Z,4.35
2022-11-05T23:59:51.756Z,4.68
